ブラジリア の空港の天気 - METARとTAF

ブラジリア国際空港 ( SBBR / BSB ) - ブラジル ブラジリア
飛行場実況気象(Metar)
観測時間01/19 09:00 BRST (01/19 11:00 UTC)
風向・風速南南東 3m/s
視程10km以上
天気現象
少しの雲 雲底高度 1220m
気温24℃
湿度69%
気圧1020hPa
METARSBBR 191100Z 15006KT 120V190 9999 FEW040 24/18 Q1020
過去の天気等 Google飛行場航空写真 Wunderground天気予報

過去48時間のMETAR

飛行場予報(TAF)
発表時間: 1/19 02:00 BRST (1/19 04:00 UTC)
予報対象時間: 19日4時 BRST ~ 20日4時 BRST
風向・風速東 3m/s
視程7000m
なし
19日6時 BRST ~ 19日8時 BRST に徐々に
風向・風速東北東 3m/s
視程10km以上
少しの雲 雲底高度 910m
19日11時 BRST ~ 19日13時 BRST に徐々に
天気現象周辺でしゅう雨
19日14時 BRST ~ 19日15時 BRST に徐々に
全天の8割程度の雲 雲底高度 910m
少しの塔状積雲 雲底高度 1070m
19日16時 BRST ~ 19日18時 BRST に徐々に
天気現象雷 周辺でしゅう雨
全天の4割程度の雲 雲底高度 1220m
少しの積乱雲 雲底高度 1370m
19日19時 BRST から
風向・風速東北東 3m/s
天気現象運行に影響にある天気現象が終了
全天の4割程度の雲 雲底高度 1220m
少しの塔状積雲 雲底高度 1370m
19日23時 BRST ~ 20日1時 BRST に徐々に
風向・風速北 3m/s
視程7000m
なし
TAF SBBR 190400Z 1906/2006 10005KT 7000 NSC TN20/1908Z TX29/1918Z
BECMG 1908/1910 07005KT 9999 FEW030
BECMG 1913/1915 VCSH 10008KT SCT030
BECMG 1916/1917 BKN030 FEW035TCU
BECMG 1918/1920 TS VCSH SCT040 FEW045CB
FM192100 07005KT NSW SCT040 FEW045TCU
BECMG 2001/2003 01005KT 7000 NSC RMK PEW